RJSC/GAJ METAR and TAF weather

Enter ICAO airport designator
Station Type Date Time Source
RJSC METAR 2019/08/19 22:40 UTC NOAA

RJSC 192240Z 32003KT 1500 R01/P2000N SHRA BR FEW003 SCT007 BKN008 22/22 Q1011 RMK 2ST003 4ST007 7ST008 A2987


Station Type Date Time Source
RJSC Decoded METAR 2019/08/19 22:40 UTC NOAA

Yamagata Airport, Japan (RJSC) 38-25N 140-22E 108M
Aug 19, 2019 - 06:40 PM EDT / 2019.08.19 2240 UTC
Wind: from the NW (320 degrees) at 3 MPH (3 KT):0
Visibility: less than 1 mile:0
Sky conditions: mostly cloudy
Weather: rain showers; mist
Temperature: 71 F (22 C)
Dew Point: 71 F (22 C)
Relative Humidity: 100%
Pressure (altimeter): 29.85 in. Hg (1011 hPa)
ob: RJSC 192240Z 32003KT 1500 R01/P2000N SHRA BR FEW003 SCT007 BKN008 22/22 Q1011 RMK 2ST003 4ST007 7ST008 A2987
cycle: 22

Station Type Date Time Source
RJSC TAF UTC NOAA

Error!

Example: see airport list